Time;durP1;ratioP1;P1;durP2;ratioP2;P2;SDS_P1;SDS_P2;PMS_P1;PMS_P2;Temp;Humidity;BMP_temperature;BMP_pressure;BME280_temperature;BME280_humidity;BME280_pressure;Samples;Min_cycle;Max_cycle;Signal;HPM_P1;HPM_P2
2022/07/19 00:00:20;;;;;;;0.10;0.10;;;;;;;22.11;52.93;101491.75;5118604;28;20401;-39
2022/07/19 00:02:46;;;;;;;0.10;0.10;;;;;;;22.11;52.97;101494.53;5123143;28;20492;-38
2022/07/19 00:05:13;;;;;;;0.10;0.10;;;;;;;22.10;52.95;101490.91;5118661;28;20071;-36
2022/07/19 00:07:39;;;;;;;0.10;0.10;;;;;;;22.12;52.97;101490.63;5117712;28;20047;-38
2022/07/19 00:10:06;;;;;;;0.10;0.10;;;;;;;22.12;52.93;101496.19;5099010;28;20043;-37
2022/07/19 00:12:32;;;;;;;0.10;0.10;;;;;;;22.12;53.05;101493.41;5121493;27;20088;-36
2022/07/19 00:14:57;;;;;;;0.20;0.20;;;;;;;22.11;53.03;101487.03;5099450;28;20147;-37
2022/07/19 00:17:23;;;;;;;0.10;0.10;;;;;;;22.11;52.94;101488.97;5118078;28;20043;-37
2022/07/19 00:19:49;;;;;;;0.10;0.10;;;;;;;22.12;53.02;101491.47;5116300;28;20047;-39
2022/07/19 00:22:15;;;;;;;0.10;0.10;;;;;;;22.12;53.08;101487.84;5124430;28;20465;-38
2022/07/19 00:24:40;;;;;;;0.10;0.10;;;;;;;22.11;52.94;101475.94;5119276;28;20042;-37
2022/07/19 00:27:06;;;;;;;0.10;0.10;;;;;;;22.12;52.99;101480.38;5115630;28;20035;-38
2022/07/19 00:29:32;;;;;;;0.17;0.17;;;;;;;22.12;52.90;101479.53;5104117;27;20047;-37
2022/07/19 00:31:57;;;;;;;0.10;0.10;;;;;;;22.12;52.92;101483.16;5105826;28;20044;-37
2022/07/19 00:34:23;;;;;;;0.10;0.10;;;;;;;22.11;52.92;101478.72;5126537;28;20088;-37
2022/07/19 00:36:48;;;;;;;0.10;0.10;;;;;;;22.11;52.92;101475.94;5121245;28;20185;-37
2022/07/19 00:39:14;;;;;;;0.10;0.10;;;;;;;22.11;52.91;101473.16;5120337;28;20062;-37
2022/07/19 00:41:42;;;;;;;0.10;0.10;;;;;;;22.12;52.94;101472.06;5122864;28;20058;-38
2022/07/19 00:44:09;;;;;;;0.10;0.10;;;;;;;22.12;52.97;101468.44;5127031;28;20076;-37
2022/07/19 00:46:35;;;;;;;0.10;0.10;;;;;;;22.12;52.95;101469.28;5123170;28;20066;-37
2022/07/19 00:49:03;;;;;;;0.20;0.20;;;;;;;22.11;52.96;101470.38;5123858;28;20043;-37
2022/07/19 00:51:28;;;;;;;0.10;0.10;;;;;;;22.12;53.07;101474.00;5122967;28;20173;-38
2022/07/19 00:53:55;;;;;;;0.10;0.10;;;;;;;22.12;53.02;101474.00;5126050;28;20400;-36
2022/07/19 00:56:22;;;;;;;0.10;0.10;;;;;;;22.12;52.97;101476.75;5127160;28;20077;-37
2022/07/19 00:58:48;;;;;;;0.10;0.10;;;;;;;22.11;53.10;101470.38;5107355;28;20512;-37
2022/07/19 01:01:14;;;;;;;0.15;0.15;;;;;;;22.12;52.94;101463.75;5125690;28;20497;-38
2022/07/19 01:03:40;;;;;;;0.10;0.10;;;;;;;22.13;53.07;101470.13;5105976;28;20060;-37
2022/07/19 01:06:07;;;;;;;0.10;0.10;;;;;;;22.12;52.94;101469.28;5121197;28;20130;-38
2022/07/19 01:08:34;;;;;;;0.10;0.10;;;;;;;22.12;53.00;101460.97;5105328;28;20569;-37
2022/07/19 01:11:02;;;;;;;0.10;0.10;;;;;;;22.11;53.01;101464.84;5122827;28;20468;-37
2022/07/19 01:13:28;;;;;;;0.10;0.10;;;;;;;22.12;53.04;101455.44;5125387;27;20090;-38
2022/07/19 01:15:54;;;;;;;0.10;0.10;;;;;;;22.11;53.01;101459.28;5120144;28;20039;-35
2022/07/19 01:18:19;;;;;;;0.10;0.10;;;;;;;22.12;52.90;101460.97;5123979;28;20041;-37
2022/07/19 01:20:45;;;;;;;0.10;0.10;;;;;;;22.13;53.04;101464.56;5119189;28;20046;-38
2022/07/19 01:23:11;;;;;;;0.10;0.10;;;;;;;22.12;53.04;101457.34;5121379;28;20421;-39
2022/07/19 01:25:37;;;;;;;0.15;0.15;;;;;;;22.12;52.93;101458.19;5125048;28;20043;-37
2022/07/19 01:28:04;;;;;;;0.10;0.10;;;;;;;22.13;53.03;101450.69;5103462;28;20123;-39
2022/07/19 01:30:30;;;;;;;0.10;0.10;;;;;;;22.13;53.01;101453.47;5119153;27;20121;-37
2022/07/19 01:32:56;;;;;;;0.10;0.10;;;;;;;22.13;53.00;101453.47;5122856;28;20055;-38
2022/07/19 01:35:22;;;;;;;0.10;0.10;;;;;;;22.13;53.03;101450.69;5118820;28;20486;-39
2022/07/19 01:37:48;;;;;;;0.10;0.10;;;;;;;22.12;52.99;101451.78;5124681;28;20051;-39
2022/07/19 01:40:15;;;;;;;0.10;0.10;;;;;;;22.13;53.03;101453.47;5106789;28;20075;-37
2022/07/19 01:42:41;;;;;;;0.20;0.20;;;;;;;22.12;53.06;101449.88;5124356;28;20069;-39
2022/07/19 01:45:08;;;;;;;0.10;0.10;;;;;;;22.13;53.03;101453.47;5119879;28;20747;-39
2022/07/19 01:47:34;;;;;;;0.10;0.10;;;;;;;22.12;53.04;101452.66;5122809;28;20086;-39
2022/07/19 01:50:00;;;;;;;0.10;0.10;;;;;;;22.13;53.01;101447.94;5121494;28;20097;-38
2022/07/19 01:52:25;;;;;;;0.10;0.10;;;;;;;22.13;53.00;101448.75;5109048;28;20044;-37
2022/07/19 01:54:51;;;;;;;0.20;0.20;;;;;;;22.12;52.96;101449.88;5120433;28;20050;-39
2022/07/19 01:57:17;;;;;;;0.13;0.13;;;;;;;22.13;53.04;101448.75;5123770;28;20312;-36
2022/07/19 01:59:42;;;;;;;0.13;0.13;;;;;;;22.13;53.07;101440.44;5119937;28;20150;-38
2022/07/19 02:02:08;;;;;;;0.10;0.10;;;;;;;22.13;52.94;101445.97;5123759;28;20050;-38
2022/07/19 02:04:34;;;;;;;0.10;0.10;;;;;;;22.13;52.93;101442.38;5120625;28;20495;-40
2022/07/19 02:07:00;;;;;;;0.20;0.20;;;;;;;22.12;52.95;101441.56;5119295;28;20068;-37
2022/07/19 02:09:26;;;;;;;0.10;0.10;;;;;;;22.13;52.93;101445.16;5124918;28;20043;-38
2022/07/19 02:11:51;;;;;;;0.20;0.20;;;;;;;22.13;53.08;101440.44;5116650;28;20049;-38
2022/07/19 02:14:17;;;;;;;0.10;0.10;;;;;;;22.13;53.03;101437.66;5104424;28;20422;-39
2022/07/19 02:16:43;;;;;;;0.20;0.20;;;;;;;22.13;52.98;101434.88;5121550;28;20121;-37
2022/07/19 02:19:09;;;;;;;0.10;0.10;;;;;;;22.12;53.02;101441.56;5100848;28;20131;-38
2022/07/19 02:21:35;;;;;;;0.20;0.20;;;;;;;22.13;52.97;101443.19;5119358;28;20131;-38
2022/07/19 02:24:02;;;;;;;0.10;0.10;;;;;;;22.14;52.97;101433.75;5122911;28;20035;-38
2022/07/19 02:26:27;;;;;;;0.20;0.20;;;;;;;22.12;53.01;101441.56;5118913;28;20089;-40
2022/07/19 02:28:53;;;;;;;0.20;0.20;;;;;;;22.13;53.04;101437.66;5116703;28;20043;-39
2022/07/19 02:31:19;;;;;;;0.10;0.10;;;;;;;22.13;53.04;101443.19;5118859;27;20059;-37
2022/07/19 02:33:45;;;;;;;0.10;0.10;;;;;;;22.13;52.95;101437.66;5121793;28;20049;-37
2022/07/19 02:36:11;;;;;;;0.10;0.10;;;;;;;22.12;53.07;101433.22;5119875;28;20059;-38
2022/07/19 02:38:36;;;;;;;0.10;0.10;;;;;;;22.13;53.16;101431.28;5123022;28;20039;-38
2022/07/19 02:41:02;;;;;;;0.10;0.10;;;;;;;22.14;52.98;101438.47;5100820;28;20477;-38
2022/07/19 02:43:28;;;;;;;0.10;0.10;;;;;;;22.12;53.07;101430.47;5119100;28;20473;-39
2022/07/19 02:45:54;;;;;;;0.20;0.20;;;;;;;22.13;53.00;101434.06;5119300;28;20054;-38
2022/07/19 02:48:19;;;;;;;0.20;0.20;;;;;;;22.13;53.01;101437.66;5116935;28;20561;-38
2022/07/19 02:50:45;;;;;;;0.10;0.10;;;;;;;22.13;53.00;101434.88;5121577;28;20099;-38
2022/07/19 02:53:11;;;;;;;0.10;0.10;;;;;;;22.13;53.02;101434.06;5120260;28;20460;-38
2022/07/19 02:55:37;;;;;;;0.10;0.10;;;;;;;22.13;53.07;101437.66;5116919;28;20050;-39
2022/07/19 02:58:03;;;;;;;0.10;0.10;;;;;;;22.12;52.98;101433.22;5105481;28;20039;-38
2022/07/19 03:00:28;;;;;;;0.20;0.20;;;;;;;22.13;53.17;101432.09;5119847;28;20098;-37
2022/07/19 03:02:54;;;;;;;0.10;0.10;;;;;;;22.13;53.06;101434.88;5121627;28;20470;-38
2022/07/19 03:05:20;;;;;;;0.10;0.10;;;;;;;22.13;52.99;101434.88;5117753;28;20046;-38
2022/07/19 03:07:46;;;;;;;0.10;0.10;;;;;;;22.13;53.00;101432.09;5107464;28;20470;-37
2022/07/19 03:10:11;;;;;;;0.10;0.10;;;;;;;22.13;52.97;101437.66;5119758;28;20043;-37
2022/07/19 03:12:37;;;;;;;0.10;0.10;;;;;;;22.13;53.01;101443.19;5118210;27;20039;-39
2022/07/19 03:15:03;;;;;;;0.10;0.10;;;;;;;22.13;53.09;101432.09;5121694;28;20469;-38
2022/07/19 03:17:29;;;;;;;0.10;0.10;;;;;;;22.14;52.94;101441.25;5120505;28;20470;-38
2022/07/19 03:19:54;;;;;;;0.10;0.10;;;;;;;22.14;53.08;101432.94;5119365;28;20054;-39
2022/07/19 03:22:20;;;;;;;0.10;0.10;;;;;;;22.13;53.01;101432.09;5126381;28;20047;-39
2022/07/19 03:24:46;;;;;;;0.15;0.15;;;;;;;22.13;53.17;101434.88;5118670;28;20070;-39
2022/07/19 03:27:11;;;;;;;0.10;0.10;;;;;;;22.14;52.97;101427.38;5123645;28;20111;-38
2022/07/19 03:29:37;;;;;;;0.10;0.10;;;;;;;22.14;52.98;101430.16;5120194;27;20108;-38
2022/07/19 03:32:03;;;;;;;0.10;0.10;;;;;;;22.13;53.00;101437.66;5120389;28;20358;-38
2022/07/19 03:34:29;;;;;;;0.10;0.10;;;;;;;22.14;53.02;101430.16;5122777;28;20042;-39
2022/07/19 03:36:55;;;;;;;0.10;0.10;;;;;;;22.13;52.99;101421.00;5119949;28;20526;-39
2022/07/19 03:39:21;;;;;;;0.10;0.10;;;;;;;22.14;53.07;101427.38;5102620;28;20055;-39
2022/07/19 03:41:46;;;;;;;0.10;0.10;;;;;;;22.14;53.04;101430.16;5099194;28;20051;-38
2022/07/19 03:44:12;;;;;;;0.10;0.10;;;;;;;22.13;53.00;101429.34;5118531;28;20054;-39
2022/07/19 03:46:38;;;;;;;0.10;0.10;;;;;;;22.13;53.02;101426.56;5116305;28;20397;-39
2022/07/19 03:49:04;;;;;;;0.10;0.10;;;;;;;22.14;52.94;101427.38;5102247;28;20048;-39
2022/07/19 03:51:30;;;;;;;0.10;0.10;;;;;;;22.14;52.99;101421.84;5121908;28;20491;-38
2022/07/19 03:53:55;;;;;;;0.10;0.10;;;;;;;22.13;52.98;101429.34;5084723;28;20043;-39
2022/07/19 03:56:21;;;;;;;0.10;0.10;;;;;;;22.14;52.92;101427.38;5126793;27;20043;-38
2022/07/19 03:58:48;;;;;;;0.10;0.10;;;;;;;22.14;53.33;101432.94;5105850;28;20035;-38
2022/07/19 04:01:15;;;;;;;0.10;0.10;;;;;;;22.13;52.92;101429.34;5120762;27;20075;-38
2022/07/19 04:03:48;;;;;;;0.10;0.10;;;;;;;22.14;53.10;101422.66;5109229;27;20185;-37
2022/07/19 04:06:13;;;;;;;0.10;0.10;;;;;;;22.13;53.06;101423.78;5123525;27;20050;-39
2022/07/19 04:08:39;;;;;;;0.10;0.10;;;;;;;22.13;53.08;101425.75;5123832;28;20035;-38
2022/07/19 04:11:05;;;;;;;0.10;0.10;;;;;;;22.14;52.94;101430.97;5124277;28;20058;-39
2022/07/19 04:13:33;;;;;;;0.10;0.10;;;;;;;22.13;53.01;101429.34;5124487;27;20051;-39
2022/07/19 04:15:58;;;;;;;0.10;0.10;;;;;;;22.13;53.00;101429.34;5120725;28;20043;-39
2022/07/19 04:18:24;;;;;;;0.10;0.10;;;;;;;22.13;52.98;101428.50;5118322;28;20499;-38
2022/07/19 04:20:50;;;;;;;0.10;0.10;;;;;;;22.14;53.08;101427.38;5121183;28;20458;-38
2022/07/19 04:23:15;;;;;;;0.10;0.10;;;;;;;22.13;52.97;101426.56;5125410;28;20378;-42
2022/07/19 04:25:41;;;;;;;0.20;0.20;;;;;;;22.12;53.00;101422.13;5119237;28;20047;-41
2022/07/19 04:28:07;;;;;;;0.10;0.10;;;;;;;22.13;52.99;101425.75;5121591;28;20044;-40
2022/07/19 04:30:33;;;;;;;0.10;0.10;;;;;;;22.13;52.90;101432.09;5124797;27;20501;-41
2022/07/19 04:32:59;;;;;;;0.10;0.10;;;;;;;22.13;53.04;101429.34;5102052;28;20039;-40
2022/07/19 04:35:24;;;;;;;0.10;0.10;;;;;;;22.14;53.02;101430.16;5121913;28;20043;-41
2022/07/19 04:37:50;;;;;;;0.10;0.10;;;;;;;22.13;53.02;101432.09;5125978;28;20092;-41
2022/07/19 04:40:16;;;;;;;0.10;0.10;;;;;;;22.14;52.97;101430.16;5122681;28;20382;-40
2022/07/19 04:42:41;;;;;;;0.10;0.10;;;;;;;22.13;52.99;101428.50;5120870;28;20039;-40
2022/07/19 04:45:07;;;;;;;0.10;0.10;;;;;;;22.14;52.98;101432.94;5125520;28;20447;-39
2022/07/19 04:47:33;;;;;;;0.20;0.20;;;;;;;22.14;53.01;101430.97;5119080;28;20046;-41
2022/07/19 04:49:58;;;;;;;0.10;0.10;;;;;;;22.14;53.00;101425.44;5124553;28;20047;-41
2022/07/19 04:52:24;;;;;;;0.10;0.10;;;;;;;22.14;53.11;101425.44;5122871;28;20096;-41
2022/07/19 04:54:50;;;;;;;0.20;0.20;;;;;;;22.15;52.96;101429.03;5125123;28;20051;-41
2022/07/19 04:57:15;;;;;;;0.10;0.10;;;;;;;22.13;52.91;101425.75;5123882;28;20409;-41
2022/07/19 04:59:41;;;;;;;0.10;0.10;;;;;;;22.14;52.99;101427.38;5123244;28;20070;-41
2022/07/19 05:02:07;;;;;;;0.10;0.10;;;;;;;22.14;52.99;101424.63;5103244;28;20048;-40
2022/07/19 05:04:33;;;;;;;0.10;0.10;;;;;;;22.14;52.99;101428.22;5121735;28;20039;-41
2022/07/19 05:06:58;;;;;;;0.10;0.10;;;;;;;22.14;53.06;101430.16;5123843;28;20044;-41
2022/07/19 05:09:25;;;;;;;0.10;0.10;;;;;;;22.14;53.01;101419.88;5120196;28;20452;-41
2022/07/19 05:11:51;;;;;;;0.10;0.10;;;;;;;22.15;52.87;101421.56;5123403;28;20078;-40
2022/07/19 05:14:17;;;;;;;0.10;0.10;;;;;;;22.14;53.08;101427.38;5102619;28;20098;-40
2022/07/19 05:16:43;;;;;;;0.10;0.10;;;;;;;22.14;53.00;101422.66;5123701;28;20477;-41
2022/07/19 05:19:09;;;;;;;0.10;0.10;;;;;;;22.14;53.00;101428.22;5104126;28;20040;-40
2022/07/19 05:21:34;;;;;;;0.10;0.10;;;;;;;22.14;52.94;101428.22;5122479;28;20048;-41
2022/07/19 05:24:01;;;;;;;0.10;0.10;;;;;;;22.14;53.00;101430.16;5122596;28;20065;-40
2022/07/19 05:26:26;;;;;;;0.10;0.10;;;;;;;22.14;52.96;101422.66;5121858;28;20051;-41
2022/07/19 05:28:52;;;;;;;0.10;0.10;;;;;;;22.15;53.00;101423.50;5121615;28;20108;-40
2022/07/19 05:31:18;;;;;;;0.10;0.10;;;;;;;22.15;52.98;101431.81;5123396;27;20043;-41
2022/07/19 05:33:43;;;;;;;0.10;0.10;;;;;;;22.13;52.99;101426.56;5104821;28;20473;-40
2022/07/19 05:36:10;;;;;;;0.10;0.10;;;;;;;22.14;52.97;101430.97;5125179;28;20035;-39
2022/07/19 05:38:38;;;;;;;0.10;0.10;;;;;;;22.13;53.10;101432.09;5122999;28;20077;-41
2022/07/19 05:41:05;;;;;;;0.15;0.15;;;;;;;22.15;53.04;101431.81;5122798;28;20126;-41
2022/07/19 05:43:31;;;;;;;0.10;0.10;;;;;;;22.14;53.06;101430.97;5123416;28;20571;-39
2022/07/19 05:45:56;;;;;;;0.13;0.13;;;;;;;22.15;53.06;101423.50;5121274;28;20066;-40
2022/07/19 05:48:22;;;;;;;0.10;0.10;;;;;;;22.14;52.97;101433.75;5123390;28;20043;-39
2022/07/19 05:50:47;;;;;;;0.10;0.10;;;;;;;22.14;52.94;101430.16;5118459;28;20054;-40
2022/07/19 05:53:13;;;;;;;0.10;0.10;;;;;;;22.14;53.01;101428.22;5120509;28;20448;-40
2022/07/19 05:55:39;;;;;;;0.10;0.10;;;;;;;22.14;52.92;101432.94;5123835;28;20044;-41
2022/07/19 05:58:04;;;;;;;0.10;0.10;;;;;;;22.15;53.15;101434.59;5122205;28;20050;-40
2022/07/19 06:00:30;;;;;;;0.10;0.10;;;;;;;22.14;52.98;101433.75;5123960;28;20058;-41
2022/07/19 06:02:56;;;;;;;0.22;0.22;;;;;;;22.14;53.02;101435.72;5125042;28;20051;-41
2022/07/19 06:05:21;;;;;;;0.10;0.10;;;;;;;22.15;52.97;101431.81;5120900;28;20413;-41
2022/07/19 06:07:47;;;;;;;0.10;0.10;;;;;;;22.14;53.07;101425.44;5123590;28;20047;-39
2022/07/19 06:10:13;;;;;;;0.10;0.10;;;;;;;22.15;53.06;101423.50;5120814;28;20425;-41
2022/07/19 06:12:38;;;;;;;0.10;0.10;;;;;;;22.14;52.66;101422.66;5122766;27;20054;-41
2022/07/19 06:15:04;;;;;;;0.10;0.10;;;;;;;22.15;53.12;101424.34;5120375;28;20040;-41
2022/07/19 06:17:30;;;;;;;0.10;0.10;;;;;;;22.14;53.02;101424.63;5120614;28;20132;-39
2022/07/19 06:19:56;;;;;;;0.10;0.10;;;;;;;22.14;52.97;101428.22;5123137;28;20035;-41
2022/07/19 06:22:21;;;;;;;0.10;0.10;;;;;;;22.15;52.97;101429.03;5102199;27;20074;-40
2022/07/19 06:24:47;;;;;;;0.10;0.10;;;;;;;22.14;52.99;101439.31;5119005;27;20044;-40
2022/07/19 06:27:13;;;;;;;0.10;0.10;;;;;;;22.14;53.02;101433.75;5120881;28;20489;-39
2022/07/19 06:29:38;;;;;;;0.20;0.20;;;;;;;22.14;52.92;101442.09;5117201;28;20043;-41
2022/07/19 06:32:04;;;;;;;0.10;0.10;;;;;;;22.14;53.02;101433.75;5124266;28;20043;-39
2022/07/19 06:34:30;;;;;;;0.10;0.10;;;;;;;22.15;52.92;101440.13;5119083;28;20080;-40
2022/07/19 06:36:55;;;;;;;0.10;0.10;;;;;;;22.15;52.98;101437.34;5117081;28;20051;-39
2022/07/19 06:39:21;;;;;;;0.10;0.10;;;;;;;22.15;52.96;101443.75;5122475;28;20039;-40
2022/07/19 06:41:47;;;;;;;0.10;0.10;;;;;;;22.15;53.00;101441.00;5120331;28;20062;-40
2022/07/19 06:44:13;;;;;;;0.10;0.10;;;;;;;22.14;53.03;101444.03;5124225;28;20085;-40
2022/07/19 06:46:38;;;;;;;0.10;0.10;;;;;;;22.14;53.11;101444.03;5118070;28;20367;-37
2022/07/19 06:49:04;;;;;;;0.10;0.10;;;;;;;22.15;53.13;101445.69;5116969;28;20062;-40
2022/07/19 06:51:30;;;;;;;0.10;0.10;;;;;;;22.15;53.08;101438.22;5120330;28;20047;-39
2022/07/19 06:53:56;;;;;;;0.10;0.10;;;;;;;22.14;53.07;101436.53;5119960;28;20039;-39
2022/07/19 06:56:21;;;;;;;0.10;0.10;;;;;;;22.14;52.97;101436.53;5121897;28;20061;-40
2022/07/19 06:58:47;;;;;;;0.10;0.10;;;;;;;22.15;52.99;101442.91;5117862;28;20047;-39
2022/07/19 07:01:13;;;;;;;0.10;0.10;;;;;;;22.14;52.97;101444.84;5119250;28;20057;-41
2022/07/19 07:03:39;;;;;;;0.10;0.10;;;;;;;22.15;53.12;101441.00;5120167;28;20044;-39
2022/07/19 07:06:06;;;;;;;0.10;0.10;;;;;;;22.17;52.94;101443.47;5123030;28;20046;-40
2022/07/19 07:08:31;;;;;;;0.10;0.10;;;;;;;22.15;53.16;101437.34;5119963;28;20040;-40
2022/07/19 07:10:57;;;;;;;0.10;0.10;;;;;;;22.14;52.93;101433.75;5122734;28;20046;-41
2022/07/19 07:13:23;;;;;;;0.10;0.10;;;;;;;22.14;52.99;101439.31;5115721;27;20487;-41
2022/07/19 07:15:48;;;;;;;0.10;0.10;;;;;;;22.15;52.96;101440.13;5124039;28;20096;-40
2022/07/19 07:18:14;;;;;;;0.10;0.10;;;;;;;22.15;53.07;101442.91;5119300;28;20035;-39
2022/07/19 07:20:40;;;;;;;0.10;0.10;;;;;;;22.15;53.00;101440.13;5105193;28;20104;-40
2022/07/19 07:23:06;;;;;;;0.10;0.10;;;;;;;22.15;53.00;101440.13;5127985;27;20435;-39
2022/07/19 07:25:32;;;;;;;0.10;0.10;;;;;;;22.15;53.07;101437.34;5103442;28;20036;-39
2022/07/19 07:27:58;;;;;;;0.10;0.10;;;;;;;22.16;52.96;101439.03;5118394;28;20046;-41
2022/07/19 07:30:24;;;;;;;0.10;0.10;;;;;;;22.16;52.91;101439.03;5120734;28;20421;-41
2022/07/19 07:32:49;;;;;;;0.10;0.10;;;;;;;22.15;52.91;101443.75;5122379;28;20078;-41
2022/07/19 07:35:15;;;;;;;0.10;0.10;;;;;;;22.15;53.05;101441.00;5119348;28;20385;-41
2022/07/19 07:37:40;;;;;;;0.10;0.10;;;;;;;22.15;53.18;101443.75;5123942;27;20096;-40
2022/07/19 07:40:07;;;;;;;0.10;0.10;;;;;;;22.14;53.08;101436.53;5121239;28;20050;-40
2022/07/19 07:42:32;;;;;;;0.10;0.10;;;;;;;22.16;52.96;101436.25;5120843;28;20120;-40
2022/07/19 07:45:00;;;;;;;0.10;0.10;;;;;;;22.15;53.05;101438.22;5106404;28;20442;-39
2022/07/19 07:47:25;;;;;;;0.10;0.10;;;;;;;22.15;53.07;101434.59;5126276;28;20127;-39
2022/07/19 07:49:51;;;;;;;0.10;0.10;;;;;;;22.14;53.11;101439.31;5104225;28;20043;-40
2022/07/19 07:52:17;;;;;;;0.10;0.10;;;;;;;22.15;53.04;101429.88;5104039;28;20055;-41
2022/07/19 07:54:43;;;;;;;0.10;0.10;;;;;;;22.15;52.99;101429.88;5106608;28;20043;-41
2022/07/19 07:57:28;;;;;;;0.20;0.20;;;;;;;22.15;52.99;101429.03;5095342;28;20473;-41
2022/07/19 07:59:54;;;;;;;0.10;0.10;;;;;;;22.15;52.93;101426.25;5122926;28;20043;-39
2022/07/19 08:02:19;;;;;;;0.10;0.10;;;;;;;22.15;53.02;101429.03;5119100;28;20469;-41
2022/07/19 08:04:46;;;;;;;2.20;0.22;;;;;;;22.15;53.06;101423.50;5126534;28;20058;-40
2022/07/19 08:07:12;;;;;;;0.10;0.10;;;;;;;22.16;53.00;101426.00;5126577;28;20055;-41
2022/07/19 08:09:38;;;;;;;0.10;0.10;;;;;;;22.16;52.99;101425.16;5121242;28;20377;-40
2022/07/19 08:12:04;;;;;;;0.10;0.10;;;;;;;22.16;53.03;101422.41;5125113;28;20497;-41
2022/07/19 08:14:30;;;;;;;0.10;0.10;;;;;;;22.15;52.93;101424.34;5106050;28;20071;-41
2022/07/19 08:16:55;;;;;;;0.10;0.10;;;;;;;22.15;53.06;101420.72;5120429;28;20059;-40
2022/07/19 08:19:21;;;;;;;0.10;0.10;;;;;;;22.15;53.02;101424.34;5124360;28;20035;-39
2022/07/19 08:21:46;;;;;;;0.10;0.10;;;;;;;22.15;53.07;101420.72;5121181;28;20494;-40
2022/07/19 08:24:12;;;;;;;0.10;0.10;;;;;;;22.16;53.05;101419.63;5122995;28;21368;-41
2022/07/19 08:26:39;;;;;;;0.10;0.10;;;;;;;22.16;52.87;101419.63;5120735;28;20124;-41
2022/07/19 08:29:04;;;;;;;0.10;0.10;;;;;;;22.16;53.00;101417.66;5124112;28;20040;-40
2022/07/19 08:31:30;;;;;;;0.10;0.10;;;;;;;22.15;53.05;101409.63;5124391;28;20138;-40
2022/07/19 08:33:56;;;;;;;0.10;0.10;;;;;;;22.16;52.95;101403.78;5123889;28;20107;-40
2022/07/19 08:36:22;;;;;;;0.10;0.10;;;;;;;22.15;53.05;101396.59;5122813;28;20122;-41
2022/07/19 08:38:47;;;;;;;0.10;0.10;;;;;;;22.16;53.03;101405.75;5120728;28;20370;-39
2022/07/19 08:41:14;;;;;;;0.10;0.10;;;;;;;22.16;52.92;101400.19;5120764;28;20040;-41
2022/07/19 08:43:40;;;;;;;0.10;0.10;;;;;;;22.16;53.05;101405.75;5124989;28;20067;-41
2022/07/19 08:46:05;;;;;;;0.10;0.10;;;;;;;22.16;52.97;101406.56;5122121;28;20070;-40
2022/07/19 08:48:34;;;;;;;0.10;0.10;;;;;;;22.15;53.00;101396.59;5119192;27;20054;-40
2022/07/19 08:51:06;;;;;;;0.10;0.10;;;;;;;22.14;53.06;101400.47;5123337;28;20404;-40
2022/07/19 08:53:33;;;;;;;0.10;0.10;;;;;;;22.16;53.11;101397.44;5106034;28;20079;-38
2022/07/19 08:56:00;;;;;;;0.10;0.10;;;;;;;22.16;53.09;101391.88;5122147;28;20078;-41
2022/07/19 08:58:25;;;;;;;0.10;0.10;;;;;;;22.16;53.03;101397.44;5125578;28;20083;-40
2022/07/19 09:00:51;;;;;;;0.10;0.10;;;;;;;22.16;53.01;101405.75;5124607;28;20039;-41
2022/07/19 09:03:17;;;;;;;0.10;0.10;;;;;;;22.15;52.98;101393.81;5122058;28;20047;-41
2022/07/19 09:05:43;;;;;;;0.10;0.10;;;;;;;22.16;53.49;101392.69;5123834;28;20039;-41
2022/07/19 09:08:12;;;;;;;0.10;0.10;;;;;;;22.16;53.06;101392.69;5122302;28;20043;-41
2022/07/19 09:10:40;;;;;;;0.10;0.10;;;;;;;22.16;52.89;101387.16;5100372;28;20472;-41
2022/07/19 09:13:15;;;;;;;0.10;0.10;;;;;;;22.16;53.04;101389.09;5125700;28;20533;-39
2022/07/19 09:15:51;;;;;;;0.10;0.10;;;;;;;22.15;53.07;101393.81;5126716;28;20051;-39
2022/07/19 09:18:21;;;;;;;0.10;0.10;;;;;;;22.16;53.05;101391.88;5118254;28;20465;-40
2022/07/19 09:20:49;;;;;;;0.10;0.10;;;;;;;22.16;53.01;101386.34;5117942;28;20081;-39
2022/07/19 09:23:15;;;;;;;0.10;0.10;;;;;;;22.16;53.04;101392.69;5108951;28;20078;-41
2022/07/19 09:25:48;;;;;;;0.10;0.10;;;;;;;22.16;53.04;101389.09;5122388;28;20493;-41
2022/07/19 09:28:15;;;;;;;0.10;0.10;;;;;;;22.16;53.03;101387.16;5111507;28;20082;-41
2022/07/19 09:30:43;;;;;;;0.10;0.10;;;;;;;22.18;53.08;101381.31;5103750;28;20131;-42
2022/07/19 09:33:17;;;;;;;0.10;0.10;;;;;;;22.18;52.96;101381.31;5101545;28;20054;-41
2022/07/19 09:35:48;;;;;;;0.10;0.10;;;;;;;22.18;52.94;101375.75;5105316;28;20051;-40
2022/07/19 09:38:15;;;;;;;0.10;0.10;;;;;;;22.18;52.88;101384.09;5120375;28;20087;-41
2022/07/19 09:40:41;;;;;;;0.10;0.10;;;;;;;22.16;53.09;101364.97;5118135;28;20061;-41
2022/07/19 09:43:07;;;;;;;0.10;0.10;;;;;;;22.16;52.96;101366.91;5123023;27;20053;-39
2022/07/19 09:45:32;;;;;;;0.10;0.10;;;;;;;22.16;52.97;101364.97;5120725;28;20051;-41
2022/07/19 09:48:00;;;;;;;0.10;0.10;;;;;;;22.17;52.91;101374.94;5119808;27;20045;-40
2022/07/19 09:50:26;;;;;;;0.10;0.10;;;;;;;22.17;53.13;101371.34;5121614;28;20086;-41
2022/07/19 09:52:52;;;;;;;0.10;0.10;;;;;;;22.18;52.98;101362.72;5100470;28;20400;-40
2022/07/19 09:55:18;;;;;;;0.10;0.10;;;;;;;22.17;52.97;101358.28;5106372;28;20082;-41
2022/07/19 09:57:47;;;;;;;0.10;0.10;;;;;;;22.16;53.07;101364.97;5110828;28;20077;-39
2022/07/19 10:00:15;;;;;;;0.10;0.10;;;;;;;22.17;53.02;101360.25;5102695;28;20051;-40
2022/07/19 10:02:44;;;;;;;0.10;0.10;;;;;;;22.16;53.09;101362.19;5100599;28;20135;-40
2022/07/19 10:05:12;;;;;;;0.10;0.10;;;;;;;22.17;53.00;101363.00;5104134;28;20076;-41
2022/07/19 10:07:37;;;;;;;0.10;0.10;;;;;;;22.17;52.92;101361.06;5122624;28;20047;-39
2022/07/19 10:10:06;;;;;;;0.10;0.10;;;;;;;22.18;52.91;101356.34;5122014;28;20067;-41
2022/07/19 10:12:32;;;;;;;0.10;0.10;;;;;;;22.18;52.94;101350.78;5119563;28;20102;-40
2022/07/19 10:14:58;;;;;;;0.10;0.10;;;;;;;22.17;52.92;101349.97;5121502;28;20386;-40
2022/07/19 10:20:06;;;;;;;0.10;0.10;;;;;;;22.18;52.95;101346.06;5166878;27;20590;-39
2022/07/19 10:22:32;;;;;;;0.10;0.10;;;;;;;22.16;53.03;101348.31;5164345;27;20070;-39
2022/07/19 10:25:06;;;;;;;0.10;0.10;;;;;;;22.17;53.02;101340.81;5148849;27;20629;-39
2022/07/19 10:27:37;;;;;;;0.10;0.10;;;;;;;22.17;53.10;101338.03;5131951;27;20484;-37
2022/07/19 10:32:52;;;;;;;0.10;0.10;;;;;;;22.17;53.07;101330.56;5179056;27;20133;-37
2022/07/19 10:35:23;;;;;;;0.10;0.10;;;;;;;22.16;53.03;101331.69;5165730;27;20073;-37
2022/07/19 10:37:51;;;;;;;0.10;0.10;;;;;;;22.17;52.99;101336.09;5168285;27;20100;-39
2022/07/19 10:40:41;;;;;;;0.10;0.10;;;;;;;22.18;52.99;101334.16;5167461;27;20070;-35
2022/07/19 10:43:09;;;;;;;0.15;0.15;;;;;;;22.20;52.96;101334.69;5142856;27;20097;-38
2022/07/19 10:45:35;;;;;;;0.10;0.10;;;;;;;22.17;52.94;101322.22;5167373;27;20042;-37
2022/07/19 10:48:06;;;;;;;0.10;0.10;;;;;;;22.18;53.02;101329.41;5147672;27;20412;-36
2022/07/19 10:50:52;;;;;;;0.10;0.10;;;;;;;22.17;52.98;101311.13;5167911;27;20211;-39
2022/07/19 10:56:18;;;;;;;0.10;0.10;;;;;;;22.19;53.01;101316.38;5177311;27;20516;-37
2022/07/19 10:58:53;;;;;;;0.10;0.10;;;;;;;22.19;52.97;101316.38;5169334;27;20065;-39
2022/07/19 11:01:20;;;;;;;0.10;0.10;;;;;;;22.17;53.04;101302.81;5148068;27;20077;-39
2022/07/19 11:03:47;;;;;;;0.10;0.10;;;;;;;22.18;53.05;101311.94;5149386;27;20046;-39
2022/07/19 11:06:24;;;;;;;0.10;0.10;;;;;;;22.18;53.04;101303.63;5167441;27;20046;-37
2022/07/19 11:08:53;;;;;;;0.10;0.10;;;;;;;22.17;53.14;101297.25;5167684;27;20074;-37
2022/07/19 11:11:19;;;;;;;0.10;0.10;;;;;;;22.18;53.07;101295.31;5150036;27;20070;-39
2022/07/19 11:13:47;;;;;;;0.10;0.10;;;;;;;22.18;52.97;101289.75;5167524;27;20050;-39
2022/07/19 11:16:13;;;;;;;;;;;;;;;22.19;53.11;101291.41;5147115;27;20107;-37
2022/07/19 11:18:39;;;;;;;0.10;0.10;;;;;;;22.18;53.04;101281.44;5168012;27;20310;-37
2022/07/19 11:21:05;;;;;;;0.10;0.10;;;;;;;22.17;53.04;101277.84;5147802;27;20080;-37
2022/07/19 11:23:34;;;;;;;0.10;0.10;;;;;;;22.19;53.05;101283.94;5167396;27;20038;-38
2022/07/19 11:26:17;;;;;;;;;;;;;;;22.18;53.19;101275.88;5166731;27;20082;-37
2022/07/19 11:28:44;;;;;;;0.10;0.10;;;;;;;22.16;53.09;101269.81;5167333;27;19962;-38
2022/07/19 11:31:14;;;;;;;0.10;0.10;;;;;;;22.18;52.90;101275.88;5149065;27;20074;-39